Time;durP1;ratioP1;P1;durP2;ratioP2;P2;SDS_P1;SDS_P2;PMS_P1;PMS_P2;Temp;Humidity;BMP_temperature;BMP_pressure;BME280_temperature;BME280_humidity;BME280_pressure;Samples;Min_cycle;Max_cycle;Signal;HPM_P1;HPM_P2
2023/01/30 00:00:55;;;;;;;0.57;0.57;;;;;;;0.06;100.00;99539.56;5049167;28;20200;-61
2023/01/30 00:03:23;;;;;;;1.43;1.33;;;;;;;-0.09;100.00;99545.75;5049131;28;20200;-59
2023/01/30 00:05:51;;;;;;;0.60;0.60;;;;;;;-0.12;100.00;99545.81;5049029;28;20207;-61
2023/01/30 00:08:18;;;;;;;1.50;0.67;;;;;;;-0.09;100.00;99535.69;5049067;28;20207;-61
2023/01/30 00:10:46;;;;;;;0.30;0.30;;;;;;;-0.07;100.00;99536.50;5049388;28;20208;-59
2023/01/30 00:13:14;;;;;;;0.87;0.50;;;;;;;-0.18;100.00;99540.94;5049127;28;20204;-59
2023/01/30 00:15:42;;;;;;;0.77;0.77;;;;;;;-0.14;100.00;99527.47;5049173;28;20667;-61
2023/01/30 00:18:09;;;;;;;0.60;0.60;;;;;;;0.02;100.00;99521.22;5049154;28;20594;-61
2023/01/30 00:20:37;;;;;;;1.80;1.53;;;;;;;-0.28;100.00;99523.53;5049308;28;20222;-61
2023/01/30 00:23:05;;;;;;;2.67;1.10;;;;;;;-0.22;100.00;99519.25;5048949;28;20203;-60
2023/01/30 00:25:32;;;;;;;1.00;1.00;;;;;;;-0.34;100.00;99516.13;5052179;28;20325;-59
2023/01/30 00:28:01;;;;;;;1.80;1.27;;;;;;;-0.30;100.00;99516.91;5052314;28;20242;-59
2023/01/30 00:30:29;;;;;;;0.53;0.53;;;;;;;-0.06;100.00;99518.91;5052319;28;20235;-61
2023/01/30 00:32:56;;;;;;;1.10;1.10;;;;;;;-0.25;100.00;99513.44;5052462;28;20215;-61
2023/01/30 00:35:27;;;;;;;1.07;1.07;;;;;;;-0.33;100.00;99512.75;5052340;28;20219;-61
2023/01/30 00:37:55;;;;;;;0.90;0.90;;;;;;;-0.37;100.00;99511.19;5052381;28;20261;-59
2023/01/30 00:40:22;;;;;;;0.53;0.53;;;;;;;-0.26;100.00;99509.28;5052271;28;20215;-61
2023/01/30 00:48:20;;;;;;;1.70;1.60;;;;;;;-0.12;100.00;99503.09;5052247;28;20195;-60
2023/01/30 00:50:46;;;;;;;1.30;1.13;;;;;;;-0.33;100.00;99495.16;5052225;28;20203;-61
2023/01/30 00:53:15;;;;;;;0.57;0.57;;;;;;;-0.43;100.00;99496.25;5052188;28;20202;-61
2023/01/30 00:55:43;;;;;;;0.77;0.77;;;;;;;-0.34;100.00;99506.09;5052156;28;20210;-59
2023/01/30 00:58:11;;;;;;;0.43;0.43;;;;;;;-0.43;100.00;99496.25;5052221;28;20639;-59
2023/01/30 01:00:39;;;;;;;2.43;1.03;;;;;;;-0.46;100.00;99501.31;5051912;28;20235;-59
2023/01/30 01:03:07;;;;;;;0.77;0.77;;;;;;;-0.46;100.00;99498.81;5052229;28;20591;-61
2023/01/30 01:05:34;;;;;;;1.07;0.97;;;;;;;-0.48;100.00;99498.00;5051729;28;20230;-60
2023/01/30 01:08:01;;;;;;;0.70;0.70;;;;;;;-0.55;100.00;99497.31;5051763;28;20235;-59
2023/01/30 01:10:28;;;;;;;1.03;0.87;;;;;;;-0.53;100.00;99492.25;5051553;28;20227;-60
2023/01/30 01:12:55;;;;;;;0.27;0.27;;;;;;;-0.44;100.00;99494.56;5051899;28;20207;-59
2023/01/30 01:15:24;;;;;;;0.50;0.50;;;;;;;-0.56;100.00;99484.78;5051973;28;20580;-59
2023/01/30 01:17:53;;;;;;;1.43;0.60;;;;;;;-0.60;100.00;99498.28;5051909;28;20648;-60
2023/01/30 01:20:21;;;;;;;0.80;0.80;;;;;;;-0.59;100.00;99500.72;5051683;28;20611;-59
2023/01/30 01:22:50;;;;;;;3.43;1.23;;;;;;;-0.56;100.00;99497.34;5051454;28;20206;-60
2023/01/30 01:25:18;;;;;;;1.23;0.50;;;;;;;-0.59;100.00;99489.88;5051583;28;20302;-60
2023/01/30 01:27:45;;;;;;;1.03;0.90;;;;;;;-0.53;100.00;99480.50;5051641;28;20281;-60
2023/01/30 01:30:13;;;;;;;0.67;0.60;;;;;;;-0.43;100.00;99490.41;5051499;28;20223;-61
2023/01/30 01:32:40;;;;;;;0.47;0.47;;;;;;;-0.58;100.00;99487.34;5051506;28;20621;-61
2023/01/30 01:35:09;;;;;;;0.87;0.87;;;;;;;-0.52;100.00;99484.69;5050952;28;20224;-61
2023/01/30 01:37:36;;;;;;;0.93;0.93;;;;;;;-0.52;100.00;99486.38;5051357;28;20207;-60
2023/01/30 01:42:51;;;;;;;0.47;0.47;;;;;;;-0.58;100.00;99479.81;5025121;28;20274;-59
2023/01/30 01:45:21;;;;;;;0.60;0.50;;;;;;;-0.61;100.00;99481.53;5051116;28;20223;-60
2023/01/30 01:48:00;;;;;;;0.77;0.70;;;;;;;-0.57;100.00;99478.94;5050939;28;20622;-59
2023/01/30 01:50:38;;;;;;;0.53;0.53;;;;;;;-0.54;100.00;99478.06;5051016;28;20250;-61
2023/01/30 01:53:08;;;;;;;0.57;0.57;;;;;;;-0.56;100.00;99477.25;5051240;28;20199;-61
2023/01/30 01:55:35;;;;;;;0.57;0.57;;;;;;;-0.33;100.00;99477.59;5050924;28;20736;-59
2023/01/30 01:58:08;;;;;;;0.23;0.23;;;;;;;-0.33;100.00;99476.75;5051150;28;20424;-60
2023/01/30 02:00:35;;;;;;;1.07;1.07;;;;;;;-0.56;100.00;99479.75;5050728;28;20727;-60
2023/01/30 02:03:06;;;;;;;0.50;0.50;;;;;;;-0.58;100.00;99471.41;5050687;28;20691;-61
2023/01/30 02:05:38;;;;;;;0.30;0.30;;;;;;;-0.55;100.00;99482.25;5050781;28;20228;-61
2023/01/30 02:08:11;;;;;;;2.10;0.90;;;;;;;-0.49;100.00;99481.31;5050397;28;20227;-61
2023/01/30 02:10:48;;;;;;;0.63;0.63;;;;;;;-0.54;100.00;99475.53;5050813;28;20223;-60
2023/01/30 02:13:15;;;;;;;1.17;1.13;;;;;;;-0.52;100.00;99476.34;5050818;28;20195;-59
2023/01/30 02:15:42;;;;;;;0.20;0.20;;;;;;;-0.53;100.00;99479.69;5050518;28;20199;-60
2023/01/30 02:18:10;;;;;;;1.63;1.17;;;;;;;-0.57;100.00;99468.91;5050617;28;20293;-61
2023/01/30 02:20:56;;;;;;;0.40;0.40;;;;;;;-0.54;100.00;99468.81;5050170;28;20226;-60
2023/01/30 02:23:56;;;;;;;0.40;0.40;;;;;;;-0.49;100.00;99456.19;5050452;28;20609;-60
2023/01/30 02:27:04;;;;;;;3.70;0.80;;;;;;;-0.51;100.00;99467.94;5050259;28;20207;-59
2023/01/30 02:29:50;;;;;;;0.80;0.50;;;;;;;-0.55;100.00;99463.84;5048494;28;20598;-59
2023/01/30 02:32:28;;;;;;;1.70;1.37;;;;;;;-0.52;100.00;99462.09;5050004;28;20210;-60
2023/01/30 02:35:04;;;;;;;0.87;0.87;;;;;;;-0.54;100.00;99462.97;5050134;28;20241;-61
2023/01/30 02:37:47;;;;;;;0.47;0.47;;;;;;;-0.53;100.00;99469.66;5050410;28;20211;-59
2023/01/30 02:40:39;;;;;;;1.97;0.93;;;;;;;-0.48;100.00;99462.84;5050403;28;20222;-59
2023/01/30 02:43:16;;;;;;;0.20;0.20;;;;;;;-0.55;100.00;99472.22;5050009;28;20809;-61
2023/01/30 02:45:51;;;;;;;0.97;0.87;;;;;;;-0.55;100.00;99471.38;5049820;28;20249;-59
2023/01/30 02:48:23;;;;;;;0.60;0.60;;;;;;;-0.50;100.00;99470.41;5049606;28;20218;-61
2023/01/30 02:50:55;;;;;;;1.33;0.87;;;;;;;-0.50;100.00;99464.56;5049631;28;20199;-59
2023/01/30 02:53:23;;;;;;;4.90;0.50;;;;;;;-0.53;100.00;99465.44;5049890;28;20203;-60
2023/01/30 02:55:49;;;;;;;0.57;0.57;;;;;;;-0.46;100.00;99467.00;5049883;28;20225;-60
2023/01/30 02:58:21;;;;;;;0.67;0.67;;;;;;;-0.50;100.00;99455.34;5049722;28;20212;-61
2023/01/30 03:01:27;;;;;;;1.13;1.10;;;;;;;-0.53;100.00;99460.41;5049866;28;20206;-61
2023/01/30 03:04:08;;;;;;;1.00;0.70;;;;;;;-0.39;100.00;99457.63;5049617;28;20219;-61
2023/01/30 03:06:48;;;;;;;1.03;0.93;;;;;;;-0.42;100.00;99456.88;5049890;28;20199;-61
2023/01/30 03:09:22;;;;;;;0.60;0.60;;;;;;;-0.39;100.00;99461.81;5050027;28;20585;-61
2023/01/30 03:12:01;;;;;;;0.40;0.40;;;;;;;-0.46;100.00;99453.59;5049681;28;20198;-59
2023/01/30 03:14:33;;;;;;;2.07;1.40;;;;;;;-0.54;100.00;99453.75;5049594;28;20219;-61
2023/01/30 03:17:04;;;;;;;1.37;0.33;;;;;;;-0.43;100.00;99448.50;5049475;28;20203;-61
2023/01/30 03:19:33;;;;;;;0.70;0.57;;;;;;;-0.52;100.00;99446.22;5049463;28;20231;-61
2023/01/30 03:22:00;;;;;;;0.80;0.80;;;;;;;-0.54;100.00;99442.91;5049823;28;20614;-61
2023/01/30 03:24:27;;;;;;;1.83;1.57;;;;;;;-0.29;100.00;99441.50;5049444;28;20219;-59
2023/01/30 03:26:58;;;;;;;1.00;0.90;;;;;;;-0.31;100.00;99440.69;5049660;28;20199;-61
2023/01/30 03:29:24;;;;;;;0.83;0.83;;;;;;;-0.52;100.00;99441.19;5049648;28;20214;-61
2023/01/30 03:31:51;;;;;;;0.90;0.90;;;;;;;-0.54;100.00;99440.38;5049496;28;20191;-61
2023/01/30 03:34:18;;;;;;;0.67;0.67;;;;;;;-0.49;100.00;99436.09;5049732;28;20610;-61
2023/01/30 03:36:47;;;;;;;0.63;0.63;;;;;;;-0.52;100.00;99436.16;5049249;28;20619;-61
2023/01/30 03:39:14;;;;;;;1.27;1.07;;;;;;;-0.49;100.00;99436.09;5049466;28;20633;-61
2023/01/30 03:41:41;;;;;;;1.23;1.13;;;;;;;-0.44;100.00;99434.28;5049440;28;20195;-61
2023/01/30 03:44:08;;;;;;;3.40;1.57;;;;;;;-0.33;100.00;99439.91;5049715;28;20230;-61
2023/01/30 03:46:34;;;;;;;0.23;0.23;;;;;;;-0.47;100.00;99441.88;5049264;28;20302;-59
2023/01/30 03:49:01;;;;;;;0.67;0.37;;;;;;;-0.34;100.00;99435.75;5049788;28;20239;-61
2023/01/30 03:51:28;;;;;;;0.70;0.70;;;;;;;-0.44;100.00;99421.72;5049253;28;20206;-59
2023/01/30 03:53:56;;;;;;;0.97;0.60;;;;;;;-0.50;100.00;99429.41;5049170;28;20221;-61
2023/01/30 03:56:23;;;;;;;0.30;0.30;;;;;;;-0.54;100.00;99430.34;5049412;28;20195;-59
2023/01/30 03:58:50;;;;;;;1.20;0.63;;;;;;;-0.38;100.00;99416.56;5051266;28;20252;-59
2023/01/30 04:01:17;;;;;;;2.73;1.27;;;;;;;-0.46;100.00;99420.94;5053218;28;20200;-61
2023/01/30 04:03:44;;;;;;;1.50;1.40;;;;;;;-0.48;100.00;99417.66;5052903;28;20226;-59
2023/01/30 04:06:11;;;;;;;2.97;1.17;;;;;;;-0.54;100.00;99422.81;5052894;28;20195;-61
2023/01/30 04:08:37;;;;;;;1.33;1.23;;;;;;;-0.57;100.00;99428.72;5052728;28;20617;-59
2023/01/30 04:11:06;;;;;;;0.63;0.63;;;;;;;-0.53;100.00;99424.44;5052693;28;20668;-61
2023/01/30 04:13:33;;;;;;;0.90;0.90;;;;;;;-0.59;100.00;99429.59;5052783;28;20195;-61
2023/01/30 04:16:21;;;;;;;1.17;1.07;;;;;;;-0.52;100.00;99426.13;5052948;28;20195;-59
2023/01/30 04:18:48;;;;;;;1.60;1.20;;;;;;;-0.57;100.00;99422.88;5050770;28;20215;-61
2023/01/30 04:21:16;;;;;;;5.53;1.67;;;;;;;-0.56;100.00;99414.47;5052796;28;20195;-59
2023/01/30 04:23:43;;;;;;;1.33;1.17;;;;;;;-0.45;100.00;99420.09;5052886;28;20234;-61
2023/01/30 04:26:12;;;;;;;12.93;0.80;;;;;;;-0.31;100.00;99415.59;5052686;28;20209;-61
2023/01/30 04:28:40;;;;;;;0.30;0.30;;;;;;;-0.27;100.00;99419.66;5052547;28;20227;-59
2023/01/30 04:31:07;;;;;;;0.53;0.53;;;;;;;-0.40;100.00;99408.25;5052616;28;20566;-59
2023/01/30 04:33:34;;;;;;;1.60;0.83;;;;;;;-0.32;100.00;99411.44;5052409;28;20203;-59
2023/01/30 04:36:02;;;;;;;1.30;0.63;;;;;;;-0.27;100.00;99419.66;5052395;28;20203;-61
2023/01/30 04:38:30;;;;;;;1.53;1.43;;;;;;;-0.35;100.00;99416.53;5052274;28;20269;-61
2023/01/30 04:40:57;;;;;;;0.67;0.67;;;;;;;-0.35;100.00;99421.53;5052190;28;20211;-61
2023/01/30 04:43:27;;;;;;;0.93;0.87;;;;;;;-0.45;100.00;99422.59;5052342;28;20660;-59
2023/01/30 04:45:54;;;;;;;1.20;1.10;;;;;;;-0.48;100.00;99420.16;5051985;28;20211;-59
2023/01/30 04:48:23;;;;;;;0.93;0.93;;;;;;;-0.50;100.00;99414.34;5052314;28;20227;-61
2023/01/30 04:50:52;;;;;;;0.87;0.87;;;;;;;-0.39;100.00;99414.91;5051914;28;20214;-61
2023/01/30 04:53:20;;;;;;;0.50;0.50;;;;;;;-0.46;100.00;99411.72;5052367;28;20585;-59
2023/01/30 04:55:47;;;;;;;0.73;0.70;;;;;;;-0.44;100.00;99421.72;5052140;28;20264;-61
2023/01/30 04:58:14;;;;;;;0.30;0.30;;;;;;;-0.49;100.00;99426.88;5051913;28;20196;-61
2023/01/30 05:00:43;;;;;;;0.63;0.60;;;;;;;-0.50;100.00;99429.41;5051883;28;20199;-61
2023/01/30 05:03:10;;;;;;;1.10;0.70;;;;;;;-0.47;100.00;99429.34;5051760;28;20207;-59
2023/01/30 05:05:36;;;;;;;1.23;1.13;;;;;;;-0.48;100.00;99428.50;5051667;28;20226;-61
2023/01/30 05:08:04;;;;;;;1.00;1.00;;;;;;;-0.46;100.00;99420.94;5051797;28;20241;-59
2023/01/30 05:10:30;;;;;;;1.20;1.10;;;;;;;-0.52;100.00;99416.06;5051097;28;20235;-61
2023/01/30 05:13:02;;;;;;;0.70;0.70;;;;;;;-0.51;100.00;99415.19;5051416;28;20192;-61
2023/01/30 05:15:29;;;;;;;0.60;0.60;;;;;;;-0.47;100.00;99424.31;5051406;28;20288;-59
2023/01/30 05:17:57;;;;;;;0.37;0.33;;;;;;;-0.51;100.00;99427.75;5051434;28;20203;-60
2023/01/30 05:20:25;;;;;;;1.20;1.10;;;;;;;-0.54;100.00;99420.28;5051450;28;20226;-60
2023/01/30 05:22:52;;;;;;;1.93;0.70;;;;;;;-0.50;100.00;99435.25;5051282;28;20676;-59
2023/01/30 05:25:18;;;;;;;1.20;1.10;;;;;;;-0.52;100.00;99428.63;5051516;28;20223;-61
2023/01/30 05:27:46;;;;;;;0.60;0.60;;;;;;;-0.52;100.00;99428.63;5051063;28;20229;-59
2023/01/30 05:30:13;;;;;;;0.87;0.50;;;;;;;-0.51;100.00;99425.25;5051239;28;20229;-60
2023/01/30 05:32:39;;;;;;;0.80;0.80;;;;;;;-0.52;100.00;99431.97;5051624;28;20195;-61
2023/01/30 05:35:08;;;;;;;2.30;0.60;;;;;;;-0.54;100.00;99417.78;5051314;28;20223;-61
2023/01/30 05:37:36;;;;;;;1.67;1.53;;;;;;;-0.50;100.00;99424.38;5051541;28;20552;-59
2023/01/30 05:40:04;;;;;;;1.50;1.40;;;;;;;-0.50;100.00;99424.38;5051005;28;20304;-60
2023/01/30 05:42:30;;;;;;;8.53;1.43;;;;;;;-0.53;100.00;99421.94;5051142;28;20203;-61
2023/01/30 05:44:57;;;;;;;0.83;0.83;;;;;;;-0.45;100.00;99415.06;5051155;28;20219;-59
2023/01/30 05:47:24;;;;;;;1.87;1.30;;;;;;;-0.49;100.00;99428.56;5051132;28;20204;-61
2023/01/30 05:49:51;;;;;;;0.73;0.73;;;;;;;-0.59;100.00;99424.56;5050894;28;20227;-61
2023/01/30 05:52:19;;;;;;;0.27;0.27;;;;;;;-0.55;100.00;99433.72;5051274;28;20196;-61
2023/01/30 05:54:46;;;;;;;0.60;0.60;;;;;;;-0.59;100.00;99429.59;5050923;28;20716;-60
2023/01/30 05:57:13;;;;;;;1.43;0.90;;;;;;;-0.54;100.00;99432.84;5050829;28;20285;-60
2023/01/30 05:59:40;;;;;;;0.57;0.37;;;;;;;-0.52;100.00;99431.13;5050697;28;20219;-61
2023/01/30 06:02:07;;;;;;;1.13;0.80;;;;;;;-0.52;100.00;99431.13;5051103;28;20192;-60
2023/01/30 06:04:34;;;;;;;0.60;0.60;;;;;;;-0.56;100.00;99435.38;5051032;28;20220;-61
2023/01/30 06:07:01;;;;;;;0.80;0.80;;;;;;;-0.44;100.00;99434.28;5050729;28;20227;-62
2023/01/30 06:09:29;;;;;;;2.60;1.47;;;;;;;-0.32;100.00;99429.00;5050796;28;20281;-61
2023/01/30 06:11:56;;;;;;;0.60;0.60;;;;;;;-0.35;100.00;99434.09;5050766;28;20203;-61
2023/01/30 06:14:23;;;;;;;0.67;0.67;;;;;;;-0.40;100.00;99430.88;5050550;28;20215;-61
2023/01/30 06:16:50;;;;;;;1.13;1.10;;;;;;;-0.47;100.00;99439.38;5050538;28;20206;-60
2023/01/30 06:19:17;;;;;;;2.23;1.20;;;;;;;-0.46;100.00;99436.03;5050444;28;20323;-61
2023/01/30 06:21:44;;;;;;;0.23;0.23;;;;;;;-0.48;100.00;99447.78;5050377;28;20199;-61
2023/01/30 06:24:10;;;;;;;2.00;1.00;;;;;;;-0.44;100.00;99444.34;5050220;28;20220;-59
2023/01/30 06:26:39;;;;;;;1.53;0.93;;;;;;;-0.34;100.00;99440.78;5050515;28;20203;-59
2023/01/30 06:29:06;;;;;;;0.43;0.43;;;;;;;-0.49;100.00;99441.13;5050121;28;20624;-59
2023/01/30 06:31:33;;;;;;;0.80;0.80;;;;;;;-0.43;100.00;99446.00;5050219;28;20201;-59
2023/01/30 06:33:59;;;;;;;1.30;1.23;;;;;;;-0.35;100.00;99443.31;5050338;28;20220;-59
2023/01/30 06:36:26;;;;;;;1.10;1.07;;;;;;;-0.38;100.00;99439.16;5050048;28;20199;-59
2023/01/30 06:38:53;;;;;;;0.70;0.63;;;;;;;-0.06;100.00;99447.66;5049903;28;20726;-59
2023/01/30 06:41:20;;;;;;;1.07;0.97;;;;;;;0.06;100.00;99446.56;5050128;28;20199;-62
2023/01/30 06:43:48;;;;;;;1.90;0.97;;;;;;;0.17;100.00;99442.94;5049866;28;20219;-62
2023/01/30 06:46:15;;;;;;;2.33;2.10;;;;;;;0.16;100.00;99446.31;5050152;28;20211;-59
2023/01/30 06:48:42;;;;;;;0.33;0.33;;;;;;;0.10;100.00;99448.97;5049983;28;20249;-61
2023/01/30 06:51:09;;;;;;;0.50;0.50;;;;;;;-0.14;100.00;99442.03;5049796;28;20199;-61
2023/01/30 06:53:37;;;;;;;0.80;0.80;;;;;;;0.02;100.00;99452.53;5049918;28;20230;-61
2023/01/30 06:56:04;;;;;;;8.53;1.50;;;;;;;0.03;100.00;99452.50;5049708;28;20199;-59
2023/01/30 06:58:31;;;;;;;2.20;1.90;;;;;;;-0.17;100.00;99454.66;5049680;28;20196;-59
2023/01/30 07:01:01;;;;;;;0.73;0.73;;;;;;;-0.09;100.00;99455.28;5049656;28;20209;-59
2023/01/30 07:03:28;;;;;;;1.07;1.03;;;;;;;-0.15;100.00;99455.44;5049640;28;20199;-59
2023/01/30 07:05:56;;;;;;;0.70;0.70;;;;;;;-0.30;100.00;99449.88;5049749;28;20208;-59
2023/01/30 07:08:23;;;;;;;0.87;0.87;;;;;;;-0.24;100.00;99449.75;5049443;28;20235;-60
2023/01/30 07:10:49;;;;;;;0.23;0.23;;;;;;;-0.16;100.00;99443.72;5049634;28;20204;-62
2023/01/30 07:13:16;;;;;;;1.87;0.93;;;;;;;-0.16;100.00;99443.72;5049403;28;20214;-59
2023/01/30 07:15:45;;;;;;;0.83;0.83;;;;;;;-0.04;100.00;99443.44;5049848;28;20218;-59
2023/01/30 07:18:13;;;;;;;2.20;1.50;;;;;;;-0.01;100.00;99454.25;5049539;28;20249;-62
2023/01/30 07:20:41;;;;;;;3.50;0.73;;;;;;;-0.05;100.00;99451.84;5049666;28;20577;-59
2023/01/30 07:23:08;;;;;;;0.93;0.73;;;;;;;0.04;100.00;99445.78;5049494;28;20203;-61
2023/01/30 07:25:35;;;;;;;3.93;1.17;;;;;;;0.05;100.00;99444.91;5049676;28;20242;-59
2023/01/30 07:28:02;;;;;;;1.80;1.07;;;;;;;0.06;100.00;99439.88;5049588;28;20257;-62
2023/01/30 07:30:34;;;;;;;1.20;0.97;;;;;;;0.08;100.00;99433.09;5049076;28;20219;-59
2023/01/30 07:33:02;;;;;;;1.23;1.13;;;;;;;-0.04;100.00;99444.25;5050575;28;20453;-59
2023/01/30 07:35:33;;;;;;;1.20;1.07;;;;;;;-0.02;100.00;99441.72;5053433;28;20225;-62
2023/01/30 07:37:59;;;;;;;1.20;1.00;;;;;;;0.03;100.00;99447.47;5053467;28;20199;-62
2023/01/30 07:40:27;;;;;;;1.27;1.17;;;;;;;0.17;100.00;99442.94;5053207;28;20230;-59
2023/01/30 07:42:58;;;;;;;0.53;0.53;;;;;;;0.19;100.00;99447.94;5053391;28;20195;-61
2023/01/30 07:45:25;;;;;;;7.00;2.33;;;;;;;0.28;100.00;99446.88;5053072;28;20221;-59
2023/01/30 07:47:52;;;;;;;1.50;0.93;;;;;;;0.14;100.00;99447.22;5053224;28;20273;-59
2023/01/30 07:50:19;;;;;;;0.67;0.63;;;;;;;0.24;100.00;99450.34;5053406;28;20241;-62
2023/01/30 07:52:47;;;;;;;3.63;1.60;;;;;;;0.31;100.00;99451.84;5052796;28;20201;-62
2023/01/30 07:55:14;;;;;;;0.40;0.40;;;;;;;0.27;100.00;99450.28;5053271;28;20223;-61
2023/01/30 07:57:41;;;;;;;1.70;1.60;;;;;;;0.38;100.00;99450.84;5053052;28;20218;-60
2023/01/30 08:00:11;;;;;;;1.97;1.17;;;;;;;0.34;100.00;99442.53;5052987;28;20277;-62
2023/01/30 08:02:38;;;;;;;1.40;1.00;;;;;;;0.35;100.00;99440.81;5053334;28;20203;-62
2023/01/30 08:05:06;;;;;;;1.33;1.23;;;;;;;0.38;100.00;99443.28;5052994;28;20707;-59
2023/01/30 08:07:32;;;;;;;0.43;0.43;;;;;;;0.19;100.00;99446.22;5052703;28;20205;-59
2023/01/30 08:10:01;;;;;;;0.50;0.50;;;;;;;0.24;100.00;99447.84;5052631;28;20317;-59
2023/01/30 08:12:28;;;;;;;1.70;1.60;;;;;;;0.34;100.00;99437.50;5053220;28;20195;-59
2023/01/30 08:14:54;;;;;;;3.30;1.47;;;;;;;0.36;100.00;99438.28;5052308;28;20211;-61
2023/01/30 08:17:21;;;;;;;1.47;1.13;;;;;;;0.41;100.00;99430.63;5052733;28;20202;-59
2023/01/30 08:19:48;;;;;;;0.97;0.80;;;;;;;0.32;100.00;99438.38;5052448;28;20214;-61
2023/01/30 08:22:15;;;;;;;0.57;0.57;;;;;;;0.49;100.00;99443.00;5052842;28;20221;-59
2023/01/30 08:24:42;;;;;;;0.77;0.77;;;;;;;0.63;100.00;99435.94;5052488;28;20215;-59
2023/01/30 08:27:11;;;;;;;2.10;0.93;;;;;;;0.58;100.00;99443.63;5052387;28;20222;-61
2023/01/30 08:29:37;;;;;;;0.40;0.40;;;;;;;0.56;100.00;99434.44;5052352;28;20245;-61
2023/01/30 08:32:05;;;;;;;0.30;0.30;;;;;;;0.61;100.00;99432.63;5052342;28;20233;-61
2023/01/30 08:34:32;;;;;;;1.03;0.87;;;;;;;0.68;100.00;99434.94;5052220;28;20215;-61
2023/01/30 08:36:58;;;;;;;1.37;1.13;;;;;;;0.89;100.00;99435.22;5051983;28;20207;-58
2023/01/30 08:39:25;;;;;;;3.03;1.43;;;;;;;0.94;100.00;99440.97;5052298;28;20228;-59
2023/01/30 08:41:52;;;;;;;1.53;1.00;;;;;;;0.97;100.00;99445.09;5052153;28;20196;-59
2023/01/30 08:44:21;;;;;;;0.43;0.43;;;;;;;1.05;100.00;99441.50;5050498;28;20215;-61
2023/01/30 08:46:47;;;;;;;1.53;0.67;;;;;;;1.00;100.00;99438.28;5051127;28;20210;-59
2023/01/30 08:49:15;;;;;;;1.07;0.80;;;;;;;0.91;100.00;99436.03;5051166;28;20238;-61
2023/01/30 08:51:41;;;;;;;0.47;0.47;;;;;;;0.97;100.00;99435.84;5052287;28;20206;-59
2023/01/30 08:54:08;;;;;;;4.40;1.50;;;;;;;1.00;100.00;99432.44;5051968;28;20211;-61
2023/01/30 08:56:35;;;;;;;0.20;0.20;;;;;;;0.98;100.00;99432.47;5051854;28;20676;-59
2023/01/30 08:59:02;;;;;;;3.00;1.87;;;;;;;0.95;100.00;99427.50;5051967;28;20274;-59
2023/01/30 09:01:31;;;;;;;6.70;0.93;;;;;;;0.98;100.00;99424.91;5051748;28;20199;-61
2023/01/30 09:03:58;;;;;;;1.50;1.40;;;;;;;0.97;100.00;99420.75;5051844;28;20219;-59
2023/01/30 09:06:24;;;;;;;3.03;1.23;;;;;;;1.08;100.00;99423.81;5051852;28;20199;-61
2023/01/30 09:08:51;;;;;;;0.67;0.67;;;;;;;1.06;100.00;99425.53;5051348;28;20231;-61
2023/01/30 09:11:18;;;;;;;1.23;1.13;;;;;;;1.04;100.00;99421.41;5051756;28;20206;-61
2023/01/30 09:13:45;;;;;;;2.70;0.90;;;;;;;1.47;100.00;99425.22;5051480;28;20734;-59
2023/01/30 09:16:12;;;;;;;0.73;0.73;;;;;;;1.42;100.00;99422.00;5051705;28;20206;-59
2023/01/30 09:18:41;;;;;;;0.60;0.60;;;;;;;1.10;100.00;99411.16;5051659;28;20215;-61
2023/01/30 09:21:10;;;;;;;1.17;1.07;;;;;;;1.24;100.00;99410.75;5051982;28;20218;-59
2023/01/30 09:23:37;;;;;;;0.93;0.73;;;;;;;1.18;100.00;99409.25;5051308;28;20230;-59
2023/01/30 09:26:04;;;;;;;0.70;0.70;;;;;;;1.12;100.00;99410.25;5051590;28;20233;-61
2023/01/30 09:28:32;;;;;;;1.03;1.03;;;;;;;1.30;100.00;99408.06;5051110;28;20207;-59
2023/01/30 09:30:59;;;;;;;1.03;0.93;;;;;;;1.19;100.00;99394.94;5051202;28;20203;-59
2023/01/30 09:33:26;;;;;;;3.17;1.17;;;;;;;1.24;100.00;99393.94;5051264;28;20211;-61
2023/01/30 09:35:56;;;;;;;1.90;1.43;;;;;;;1.13;100.00;99388.41;5051238;28;20206;-59
2023/01/30 09:38:22;;;;;;;0.73;0.73;;;;;;;1.10;100.00;99388.50;5051115;28;20672;-59
2023/01/30 09:41:10;;;;;;;0.70;0.70;;;;;;;1.23;100.00;99386.47;5051328;28;20584;-61
2023/01/30 09:43:55;;;;;;;1.57;1.47;;;;;;;1.38;100.00;99386.00;5028575;28;20226;-61
2023/01/30 09:46:34;;;;;;;1.07;1.00;;;;;;;1.46;100.00;99384.06;5050881;28;20211;-61
2023/01/30 09:49:08;;;;;;;2.30;0.67;;;;;;;1.49;100.00;99389.03;5051287;28;20615;-59
2023/01/30 09:51:50;;;;;;;1.23;1.00;;;;;;;1.45;100.00;99381.59;5051011;28;20195;-59
2023/01/30 09:54:23;;;;;;;0.67;0.67;;;;;;;1.53;100.00;99389.75;5050788;28;20226;-61
2023/01/30 09:57:00;;;;;;;1.20;0.90;;;;;;;1.77;100.00;99380.59;5050636;28;20191;-59
2023/01/30 09:59:34;;;;;;;0.60;0.60;;;;;;;1.62;100.00;99379.38;5050838;28;20696;-60
2023/01/30 10:02:13;;;;;;;1.23;1.10;;;;;;;1.49;100.00;99373.91;5051190;28;20672;-60
2023/01/30 10:04:45;;;;;;;1.50;1.40;;;;;;;1.57;100.00;99371.13;5050619;28;20218;-59
2023/01/30 10:07:21;;;;;;;2.00;1.27;;;;;;;1.34;100.00;99369.34;5051000;28;20211;-59
2023/01/30 10:09:59;;;;;;;1.30;1.17;;;;;;;1.35;100.00;99360.91;5050369;28;20694;-59
2023/01/30 10:12:44;;;;;;;1.33;1.23;;;;;;;1.17;100.00;99351.38;5050931;28;20203;-59
2023/01/30 10:15:38;;;;;;;0.60;0.60;;;;;;;1.26;100.00;99356.97;5050712;28;20230;-59
2023/01/30 10:18:23;;;;;;;0.50;0.50;;;;;;;1.18;100.00;99342.94;5048859;28;20199;-61
2023/01/30 10:21:01;;;;;;;1.10;1.10;;;;;;;1.31;100.00;99349.28;5050319;28;20210;-60
2023/01/30 10:23:51;;;;;;;1.67;1.37;;;;;;;1.30;100.00;99340.06;5050631;28;20199;-59
2023/01/30 10:26:21;;;;;;;0.77;0.77;;;;;;;1.19;100.00;99334.50;5050516;28;20207;-61
2023/01/30 10:28:56;;;;;;;1.37;1.27;;;;;;;1.00;100.00;99325.00;5050224;28;20711;-61
2023/01/30 10:31:28;;;;;;;3.93;0.80;;;;;;;1.09;100.00;99319.69;5050361;28;20198;-61
2023/01/30 10:34:00;;;;;;;1.27;1.17;;;;;;;1.05;100.00;99312.28;5050263;28;20219;-59
2023/01/30 10:36:37;;;;;;;1.10;1.07;;;;;;;1.02;100.00;99318.22;5050408;28;20206;-59
2023/01/30 10:39:24;;;;;;;1.67;1.57;;;;;;;1.13;100.00;99313.72;5050695;28;20223;-61
2023/01/30 10:41:56;;;;;;;0.53;0.53;;;;;;;1.21;100.00;99302.56;5050323;28;20202;-59
2023/01/30 10:44:24;;;;;;;2.10;1.20;;;;;;;1.20;100.00;99309.31;5050013;28;20223;-61
2023/01/30 10:47:11;;;;;;;3.83;1.70;;;;;;;1.34;100.00;99301.31;5050061;28;20215;-60
2023/01/30 10:49:42;;;;;;;1.23;1.10;;;;;;;1.12;100.00;99293.59;5050007;28;20231;-59
2023/01/30 10:52:25;;;;;;;2.10;1.83;;;;;;;1.16;100.00;99289.28;5050012;28;20199;-61
2023/01/30 10:55:03;;;;;;;2.60;1.93;;;;;;;1.18;100.00;99283.31;5049874;28;20215;-61
2023/01/30 10:57:42;;;;;;;0.90;0.70;;;;;;;1.35;100.00;99280.28;5050035;28;20202;-61
2023/01/30 11:00:19;;;;;;;1.37;1.17;;;;;;;1.12;100.00;99274.25;5049745;28;20269;-59
2023/01/30 11:02:58;;;;;;;2.63;1.43;;;;;;;1.04;100.00;99268.63;5050043;28;20207;-59
2023/01/30 11:05:30;;;;;;;1.23;1.17;;;;;;;1.05;100.00;99262.75;5049826;28;20234;-61
2023/01/30 11:07:57;;;;;;;1.57;1.40;;;;;;;1.13;100.00;99260.81;5049076;28;20675;-61
2023/01/30 11:10:28;;;;;;;0.90;0.80;;;;;;;1.21;100.00;99250.50;5049598;28;20238;-61
2023/01/30 11:12:58;;;;;;;0.80;0.80;;;;;;;1.35;100.00;99240.00;5049945;28;20629;-61
2023/01/30 11:15:25;;;;;;;1.70;1.53;;;;;;;1.43;100.00;99229.69;5049573;28;20214;-60
2023/01/30 11:18:05;;;;;;;1.70;0.80;;;;;;;1.41;100.00;99223.84;5049605;28;20207;-60
2023/01/30 11:20:39;;;;;;;2.43;1.17;;;;;;;1.42;100.00;99222.97;5049624;28;20661;-59
2023/01/30 11:23:08;;;;;;;1.90;1.43;;;;;;;1.42;100.00;99215.41;5049883;28;20202;-61
2023/01/30 11:25:48;;;;;;;1.37;1.20;;;;;;;1.49;100.00;99214.34;5049761;28;20219;-59
2023/01/30 11:28:18;;;;;;;2.53;1.17;;;;;;;1.36;100.00;99203.84;5049539;28;20210;-59
2023/01/30 11:30:50;;;;;;;4.27;1.50;;;;;;;1.30;100.00;99201.53;5049787;28;20237;-60
2023/01/30 11:33:21;;;;;;;1.30;1.20;;;;;;;1.28;100.00;99200.75;5049541;28;20596;-61
2023/01/30 11:35:54;;;;;;;0.93;0.93;;;;;;;1.28;100.00;99203.25;5049478;28;20739;-59
2023/01/30 11:38:24;;;;;;;1.07;0.97;;;;;;;1.30;100.00;99196.50;5049327;28;20202;-61
2023/01/30 11:41:03;;;;;;;1.90;1.47;;;;;;;1.33;100.00;99191.34;5049382;28;20207;-59
2023/01/30 11:43:30;;;;;;;1.27;0.90;;;;;;;1.31;100.00;99180.53;5049218;28;20195;-61
2023/01/30 11:45:58;;;;;;;1.23;1.03;;;;;;;1.33;100.00;99181.28;5049558;28;20249;-61
2023/01/30 11:48:28;;;;;;;3.33;1.10;;;;;;;1.22;100.00;99174.09;5049440;28;20195;-61
2023/01/30 11:51:01;;;;;;;1.80;1.43;;;;;;;1.39;100.00;99168.47;5049337;28;20231;-61